TimePDT,TemperatureF,Dew PointF,Humidity,Sea Level PressureIn,VisibilityMPH,Wind Direction,Wind SpeedMPH,Gust SpeedMPH,PrecipitationIn,Events,Conditions,WindDirDegrees,DateUTC
12:15 AM,44.6,30.2,57,30.02,10.0,WNW,8.1,-,N/A,,Clear,290,2013-09-27 07:15:00
12:35 AM,44.6,30.2,57,30.02,10.0,WNW,3.5,-,N/A,,Clear,300,2013-09-27 07:35:00
12:55 AM,44.6,30.2,57,30.02,10.0,WNW,4.6,-,N/A,,Clear,290,2013-09-27 07:55:00
1:15 AM,-9999,-9999,N/A,-9999,-9999.0,North,-9999.0,-,N/A,,Unknown,0,2013-09-27 08:15:00
1:35 AM,41.0,30.2,65,30.03,10.0,NNW,4.6,-,N/A,,Unknown,340,2013-09-27 08:35:00
1:55 AM,42.8,28.4,57,30.04,10.0,Calm,Calm,-,N/A,,Clear,0,2013-09-27 08:55:00
2:15 AM,41.0,28.4,61,30.04,10.0,NNW,3.5,-,N/A,,Clear,330,2013-09-27 09:15:00
2:35 AM,41.0,30.2,65,30.04,10.0,North,4.6,-,N/A,,Clear,350,2013-09-27 09:35:00
2:55 AM,41.0,30.2,65,30.03,10.0,North,4.6,-,N/A,,Clear,360,2013-09-27 09:55:00
3:15 AM,41.0,30.2,65,30.03,10.0,North,3.5,-,N/A,,Clear,350,2013-09-27 10:15:00
3:35 AM,41.0,30.2,65,30.04,10.0,Calm,Calm,-,N/A,,Clear,0,2013-09-27 10:35:00
3:55 AM,41.0,28.4,61,30.04,10.0,Calm,Calm,-,N/A,,Clear,0,2013-09-27 10:55:00
4:15 AM,41.0,28.4,61,30.04,10.0,Calm,Calm,-,N/A,,Clear,0,2013-09-27 11:15:00
4:35 AM,41.0,28.4,61,30.05,10.0,NW,5.8,-,N/A,,Clear,320,2013-09-27 11:35:00
4:55 AM,41.0,28.4,61,30.05,10.0,WNW,3.5,-,N/A,,Clear,300,2013-09-27 11:55:00
5:15 AM,41.0,28.4,61,30.06,10.0,West,4.6,-,N/A,,Clear,270,2013-09-27 12:15:00
5:35 AM,39.2,28.4,65,30.07,10.0,NW,3.5,-,N/A,,Clear,310,2013-09-27 12:35:00
5:55 AM,37.4,28.4,70,30.07,10.0,Calm,Calm,-,N/A,,Clear,0,2013-09-27 12:55:00
6:15 AM,39.2,28.4,65,30.08,10.0,Calm,Calm,-,N/A,,Clear,0,2013-09-27 13:15:00
6:35 AM,37.4,28.4,70,30.09,10.0,Calm,Calm,-,N/A,,Clear,0,2013-09-27 13:35:00
6:55 AM,35.6,28.4,75,30.09,9.0,ESE,3.5,-,N/A,,Clear,120,2013-09-27 13:55:00
7:15 AM,35.6,28.4,75,30.10,9.0,SE,6.9,-,N/A,,Clear,130,2013-09-27 14:15:00
7:35 AM,37.4,30.2,75,30.10,9.0,SE,8.1,-,N/A,,Clear,130,2013-09-27 14:35:00
7:55 AM,41.0,32.0,70,30.11,9.0,SE,3.5,-,N/A,,Clear,130,2013-09-27 14:55:00
8:15 AM,44.6,32.0,61,30.11,10.0,Calm,Calm,-,N/A,,Clear,0,2013-09-27 15:15:00
8:35 AM,46.4,32.0,57,30.12,9.0,Calm,Calm,-,N/A,,Clear,0,2013-09-27 15:35:00
8:55 AM,48.2,32.0,54,30.13,9.0,Calm,Calm,-,N/A,,Clear,0,2013-09-27 15:55:00
9:15 AM,51.8,32.0,47,30.13,10.0,WNW,3.5,-,N/A,,Clear,300,2013-09-27 16:15:00
9:35 AM,53.6,32.0,44,30.13,10.0,Calm,Calm,-,N/A,,Clear,0,2013-09-27 16:35:00
9:55 AM,55.4,32.0,41,30.13,9.0,Calm,Calm,-,N/A,,Clear,0,2013-09-27 16:55:00
10:15 AM,55.4,28.4,36,30.13,10.0,SSE,3.5,-,N/A,,Clear,160,2013-09-27 17:15:00
10:35 AM,57.2,28.4,33,30.13,10.0,South,4.6,-,N/A,,Clear,170,2013-09-27 17:35:00
10:55 AM,59.0,26.6,29,30.13,10.0,SSE,8.1,-,N/A,,Clear,150,2013-09-27 17:55:00
11:15 AM,60.8,26.6,27,30.12,8.0,East,8.1,-,N/A,,Clear,80,2013-09-27 18:15:00
11:35 AM,60.8,26.6,27,30.12,7.0,SE,8.1,-,N/A,,Clear,140,2013-09-27 18:35:00
11:55 AM,62.6,26.6,26,30.12,10.0,ESE,3.5,-,N/A,,Clear,110,2013-09-27 18:55:00
12:15 PM,62.6,24.8,24,30.12,10.0,ESE,8.1,-,N/A,,Clear,110,2013-09-27 19:15:00
12:35 PM,62.6,24.8,24,30.12,10.0,SW,4.6,-,N/A,,Clear,220,2013-09-27 19:35:00
12:55 PM,64.4,23.0,21,30.12,10.0,SSW,9.2,-,N/A,,Clear,200,2013-09-27 19:55:00
1:15 PM,64.4,23.0,21,30.11,10.0,SW,3.5,-,N/A,,Clear,220,2013-09-27 20:15:00
1:35 PM,64.4,21.2,19,30.11,10.0,North,3.5,-,N/A,,Clear,10,2013-09-27 20:35:00
1:55 PM,66.2,26.6,23,30.10,9.0,WNW,10.4,-,N/A,,Clear,300,2013-09-27 20:55:00
2:15 PM,66.2,28.4,24,30.09,9.0,NNW,10.4,-,N/A,,Clear,330,2013-09-27 21:15:00
2:35 PM,66.2,30.2,26,30.09,9.0,NW,13.8,-,N/A,,Clear,310,2013-09-27 21:35:00
2:55 PM,66.2,32.0,28,30.09,9.0,NW,12.7,19.6,N/A,,Clear,320,2013-09-27 21:55:00
3:15 PM,64.4,32.0,30,30.09,9.0,NW,16.1,21.9,N/A,,Clear,320,2013-09-27 22:15:00
3:35 PM,64.4,32.0,30,30.09,10.0,NW,16.1,-,N/A,,Clear,310,2013-09-27 22:35:00
3:55 PM,64.4,32.0,30,30.10,10.0,NW,15.0,-,N/A,,Clear,310,2013-09-27 22:55:00
4:15 PM,62.6,30.2,30,30.10,10.0,NW,12.7,-,N/A,,Clear,320,2013-09-27 23:15:00
4:35 PM,62.6,30.2,30,30.10,10.0,NW,12.7,-,N/A,,Clear,310,2013-09-27 23:35:00
4:55 PM,62.6,32.0,32,30.10,10.0,NW,11.5,17.3,N/A,,Clear,310,2013-09-27 23:55:00
5:15 PM,62.6,32.0,32,30.11,10.0,NW,10.4,-,N/A,,Clear,310,2013-09-28 00:15:00
5:35 PM,62.6,30.2,30,30.11,10.0,NW,9.2,-,N/A,,Clear,310,2013-09-28 00:35:00
5:55 PM,60.8,30.2,31,30.11,10.0,NW,9.2,-,N/A,,Clear,310,2013-09-28 00:55:00
6:15 PM,59.0,30.2,34,30.11,10.0,NW,8.1,-,N/A,,Clear,310,2013-09-28 01:15:00
6:35 PM,57.2,30.2,36,30.11,10.0,NW,6.9,-,N/A,,Clear,310,2013-09-28 01:35:00
6:55 PM,57.2,30.2,36,30.12,10.0,NW,6.9,-,N/A,,Clear,320,2013-09-28 01:55:00
7:15 PM,53.6,28.4,38,30.12,10.0,NW,4.6,-,N/A,,Clear,310,2013-09-28 02:15:00
7:35 PM,53.6,28.4,38,30.12,10.0,Calm,Calm,-,N/A,,Clear,0,2013-09-28 02:35:00
7:55 PM,53.6,28.4,38,30.13,10.0,Calm,Calm,-,N/A,,Clear,0,2013-09-28 02:55:00
8:15 PM,51.8,30.2,44,30.14,10.0,Calm,Calm,-,N/A,,Clear,0,2013-09-28 03:15:00
8:35 PM,48.2,32.0,54,30.14,10.0,Calm,Calm,-,N/A,,Clear,0,2013-09-28 03:35:00
8:55 PM,46.4,28.4,50,30.15,10.0,Calm,Calm,-,N/A,,Clear,0,2013-09-28 03:55:00
9:15 PM,48.2,28.4,46,30.16,10.0,Calm,Calm,-,N/A,,Clear,0,2013-09-28 04:15:00
9:35 PM,46.4,28.4,50,30.17,10.0,Calm,Calm,-,N/A,,Clear,0,2013-09-28 04:35:00
9:55 PM,46.4,28.4,50,30.17,10.0,SE,4.6,-,N/A,,Clear,130,2013-09-28 04:55:00
10:15 PM,44.6,30.2,57,30.17,10.0,ESE,5.8,-,N/A,,Clear,110,2013-09-28 05:15:00
10:35 PM,42.8,28.4,57,30.17,10.0,East,3.5,-,N/A,,Clear,100,2013-09-28 05:35:00
10:55 PM,44.6,28.4,53,30.17,10.0,SE,3.5,-,N/A,,Clear,130,2013-09-28 05:55:00
11:15 PM,42.8,26.6,53,30.17,10.0,ESE,4.6,-,N/A,,Clear,110,2013-09-28 06:15:00
11:35 PM,42.8,26.6,53,30.17,10.0,ESE,4.6,-,N/A,,Clear,120,2013-09-28 06:35:00
11:55 PM,41.0,26.6,57,30.17,10.0,SE,4.6,-,N/A,,Clear,130,2013-09-28 06:55:00